createdAt,value
2019-05-22T00:03:24.665Z,22.20
2019-05-22T00:08:31.383Z,18.67
2019-05-22T00:13:38.643Z,21.10
2019-05-22T00:18:44.098Z,23.90
2019-05-22T00:23:49.648Z,21.37
2019-05-22T00:28:54.807Z,28.43
2019-05-22T00:34:01.210Z,21.67
2019-05-22T00:39:08.657Z,29.13
2019-05-22T00:44:14.661Z,24.20
2019-05-22T00:49:22.600Z,27.00
2019-05-22T00:54:36.927Z,24.17
2019-05-22T00:59:46.583Z,26.67
2019-05-22T01:04:54.982Z,27.83
2019-05-22T01:10:03.584Z,24.47
2019-05-22T01:15:11.329Z,26.37
2019-05-22T01:20:18.109Z,23.03
2019-05-22T01:25:24.798Z,28.70
2019-05-22T01:30:43.947Z,28.03
2019-05-22T01:36:00.196Z,30.23
2019-05-22T01:41:10.753Z,32.00
2019-05-22T01:46:16.674Z,32.30
2019-05-22T01:51:22.835Z,30.23
2019-05-22T01:56:30.316Z,35.10
2019-05-22T02:01:38.021Z,30.03
2019-05-22T02:06:44.977Z,29.13
2019-05-22T02:11:55.022Z,35.37
2019-05-22T02:17:01.601Z,36.87
2019-05-22T02:22:07.098Z,33.80
2019-05-22T02:27:13.674Z,32.73
2019-05-22T02:32:21.042Z,33.90
2019-05-22T02:37:27.694Z,32.20
2019-05-22T02:42:33.523Z,32.93
2019-05-22T02:47:39.491Z,41.20
2019-05-22T02:52:46.125Z,36.90
2019-05-22T02:57:51.525Z,39.77
2019-05-22T03:02:57.524Z,38.90
2019-05-22T03:08:03.513Z,29.40
2019-05-22T03:13:09.277Z,33.03
2019-05-22T03:18:15.237Z,35.03
2019-05-22T03:23:38.392Z,36.20
2019-05-22T03:28:43.995Z,35.23
2019-05-22T03:33:50.137Z,38.40
2019-05-22T03:38:55.897Z,40.67
2019-05-22T03:44:04.345Z,43.53
2019-05-22T03:49:28.073Z,36.87
2019-05-22T03:54:20.259Z,36.93
2019-05-22T03:59:26.217Z,35.57
2019-05-22T04:04:36.716Z,37.10
2019-05-22T04:09:43.452Z,35.57
2019-05-22T04:14:48.793Z,39.07
2019-05-22T04:19:54.948Z,36.47
2019-05-22T04:25:01.123Z,43.10
2019-05-22T04:30:09.460Z,37.77
2019-05-22T04:35:18.219Z,30.90
2019-05-22T04:40:27.541Z,34.60
2019-05-22T04:45:35.270Z,30.97
2019-05-22T04:50:40.908Z,25.47
2019-05-22T04:55:46.925Z,29.33
2019-05-22T05:00:52.032Z,30.13
2019-05-22T05:05:57.907Z,27.83
2019-05-22T05:11:04.362Z,23.77
2019-05-22T05:16:09.940Z,23.93
2019-05-22T05:21:14.935Z,21.17
2019-05-22T05:26:20.872Z,23.67
2019-05-22T05:31:25.911Z,20.97
2019-05-22T05:36:31.795Z,24.57
2019-05-22T05:41:37.099Z,23.90
2019-05-22T05:46:42.266Z,25.60
2019-05-22T05:51:49.481Z,13.43
2019-05-22T05:56:55.723Z,12.03
2019-05-22T06:02:01.778Z,11.17
2019-05-22T06:07:20.106Z,15.43
2019-05-22T06:12:26.006Z,10.63
2019-05-22T06:17:52.033Z,10.07
2019-05-22T06:23:24.178Z,10.33
2019-05-22T06:28:32.304Z,11.80
2019-05-22T06:33:38.967Z,10.63
2019-05-22T06:38:50.573Z,13.37
2019-05-22T06:44:25.435Z,10.33
2019-05-22T06:49:35.971Z,12.70
2019-05-22T06:54:41.112Z,13.13
2019-05-22T07:00:15.238Z,13.50
2019-05-22T07:05:20.937Z,13.20
2019-05-22T07:10:44.667Z,10.50
2019-05-22T07:15:50.616Z,10.93
2019-05-22T07:21:34.115Z,11.77
2019-05-22T07:26:59.755Z,12.73
2019-05-22T07:32:23.921Z,10.63
2019-05-22T07:37:30.696Z,12.47
2019-05-22T07:42:35.918Z,7.83
2019-05-22T07:48:00.718Z,8.23
2019-05-22T07:53:43.632Z,7.13
2019-05-22T07:59:24.756Z,6.57
2019-05-22T08:04:49.333Z,6.13
2019-05-22T08:10:14.177Z,8.43
2019-05-22T08:15:20.880Z,7.63
2019-05-22T08:20:44.985Z,7.07
2019-05-22T08:26:10.063Z,6.40
2019-05-22T08:31:16.255Z,7.13
2019-05-22T08:36:21.461Z,9.07
2019-05-22T08:41:45.290Z,7.93
2019-05-22T08:47:08.543Z,6.73
2019-05-22T08:52:31.931Z,6.57
2019-05-22T08:57:55.855Z,6.40
2019-05-22T09:03:01.661Z,5.17
2019-05-22T09:08:06.662Z,6.03
2019-05-22T09:13:49.604Z,5.60
2019-05-22T09:18:55.143Z,4.60
2019-05-22T09:24:02.645Z,6.07
2019-05-22T09:29:26.178Z,23.10
2019-05-22T09:34:50.472Z,5.27
2019-05-22T09:40:13.739Z,4.90
2019-05-22T09:45:19.745Z,4.40
2019-05-22T09:50:43.622Z,19.03
2019-05-22T09:55:49.317Z,6.37
2019-05-22T10:00:54.526Z,4.77
2019-05-22T10:06:00.265Z,4.23
2019-05-22T10:11:05.529Z,3.97
2019-05-22T10:16:10.949Z,3.47
2019-05-22T10:21:17.139Z,3.80
2019-05-22T10:26:23.255Z,3.27
2019-05-22T10:31:28.626Z,6.60
2019-05-22T10:36:34.737Z,3.30
2019-05-22T10:41:40.133Z,5.40
2019-05-22T10:46:45.423Z,3.60
2019-05-22T10:51:51.729Z,3.97
2019-05-22T10:56:56.967Z,3.00
2019-05-22T11:02:02.112Z,5.10
2019-05-22T11:07:08.001Z,3.07
2019-05-22T11:12:14.147Z,3.40
2019-05-22T11:17:19.284Z,3.33
2019-05-22T11:22:25.375Z,3.20
2019-05-22T11:27:30.313Z,5.37
2019-05-22T11:32:35.924Z,4.90
2019-05-22T11:37:41.323Z,4.17
2019-05-22T11:42:46.966Z,3.93
2019-05-22T11:47:53.696Z,3.90
2019-05-22T11:52:58.947Z,2.60
2019-05-22T11:58:04.372Z,2.70
2019-05-22T12:03:09.640Z,2.97
2019-05-22T12:08:15.947Z,3.20
2019-05-22T12:13:23.615Z,3.30
2019-05-22T12:18:29.550Z,3.67
2019-05-22T12:23:34.802Z,3.33
2019-05-22T12:28:41.123Z,2.93
2019-05-22T12:33:46.665Z,3.00
2019-05-22T12:38:51.986Z,2.70
2019-05-22T12:43:57.249Z,6.07
2019-05-22T12:49:03.369Z,2.30
2019-05-22T12:54:08.575Z,4.30
2019-05-22T12:59:14.374Z,3.97
2019-05-22T13:04:21.195Z,3.90
2019-05-22T13:09:26.204Z,3.00
2019-05-22T13:14:31.979Z,3.50
2019-05-22T13:19:37.563Z,2.43
2019-05-22T13:24:44.353Z,3.67
2019-05-22T13:29:49.910Z,2.53
2019-05-22T13:34:56.607Z,2.93
2019-05-22T13:40:01.775Z,4.87
2019-05-22T13:45:08.042Z,2.10
2019-05-22T13:50:15.721Z,3.83
2019-05-22T13:55:21.135Z,6.00
2019-05-22T14:00:27.019Z,2.90
2019-05-22T14:05:33.487Z,4.93
2019-05-22T14:10:39.349Z,4.93
2019-05-22T14:15:54.726Z,2.77
2019-05-22T14:20:51.079Z,4.40
2019-05-22T14:25:56.307Z,2.67
2019-05-22T14:31:01.743Z,2.80
2019-05-22T14:36:07.061Z,3.20
2019-05-22T14:41:12.298Z,4.00
2019-05-22T14:46:17.485Z,5.63
2019-05-22T14:51:24.911Z,2.50
2019-05-22T14:56:29.949Z,3.10
2019-05-22T15:01:34.982Z,7.90
2019-05-22T15:06:40.954Z,2.93
2019-05-22T15:11:46.135Z,3.50
2019-05-22T15:16:51.043Z,3.27
2019-05-22T15:21:56.086Z,1.72
2019-05-22T15:27:01.859Z,3.33
2019-05-22T15:32:09.046Z,2.77
2019-05-22T15:37:15.532Z,2.63
2019-05-22T15:42:41.432Z,5.50
2019-05-22T15:47:55.488Z,2.60
2019-05-22T15:53:04.099Z,2.70
2019-05-22T15:58:09.495Z,7.60
2019-05-22T16:03:22.870Z,2.63
2019-05-22T16:08:30.776Z,2.60
2019-05-22T16:13:36.157Z,6.33
2019-05-22T16:18:44.484Z,5.57
2019-05-22T16:23:51.440Z,3.40
2019-05-22T16:28:59.189Z,3.87
2019-05-22T16:34:05.495Z,4.67
2019-05-22T16:39:11.928Z,6.20
2019-05-22T16:44:17.354Z,3.60
2019-05-22T16:49:22.322Z,6.77
2019-05-22T16:54:30.727Z,6.33
2019-05-22T16:59:38.677Z,5.00
2019-05-22T17:04:44.671Z,6.53
2019-05-22T17:09:51.732Z,4.83
2019-05-22T17:14:57.799Z,5.83
2019-05-22T17:20:03.663Z,11.07
2019-05-22T17:25:09.225Z,6.20
2019-05-22T17:30:20.425Z,6.80
2019-05-22T17:35:25.438Z,5.67
2019-05-22T17:40:32.270Z,5.70
2019-05-22T17:45:38.851Z,8.87
2019-05-22T17:50:45.572Z,8.60
2019-05-22T17:55:50.900Z,7.87
2019-05-22T18:00:56.801Z,6.47
2019-05-22T18:06:02.183Z,7.73
2019-05-22T18:11:08.877Z,6.63
2019-05-22T18:16:13.927Z,10.60
2019-05-22T18:21:19.059Z,6.37
2019-05-22T18:26:24.045Z,6.03
2019-05-22T18:31:29.008Z,8.17
2019-05-22T18:36:34.023Z,7.23
2019-05-22T18:41:38.959Z,4.63
2019-05-22T18:46:44.385Z,7.40
2019-05-22T18:51:49.552Z,5.87
2019-05-22T18:56:55.207Z,6.10
2019-05-22T19:02:00.393Z,9.30
2019-05-22T19:07:05.679Z,12.40
2019-05-22T19:12:11.006Z,14.93
2019-05-22T19:17:16.300Z,16.73
2019-05-22T19:22:21.995Z,16.40
2019-05-22T19:27:27.350Z,18.17
2019-05-22T19:32:34.030Z,18.40
2019-05-22T19:37:39.125Z,19.13
2019-05-22T19:42:44.805Z,23.03
2019-05-22T19:47:52.577Z,22.03
2019-05-22T19:52:58.256Z,21.07
2019-05-22T19:58:04.305Z,21.17
2019-05-22T20:03:09.690Z,23.03
2019-05-22T20:08:15.562Z,21.53
2019-05-22T20:13:22.561Z,19.83
2019-05-22T20:18:27.785Z,20.20
2019-05-22T20:23:36.489Z,19.20
2019-05-22T20:28:41.211Z,23.63
2019-05-22T20:33:46.709Z,24.70
2019-05-22T20:38:55.032Z,22.03
2019-05-22T20:44:01.561Z,25.80
2019-05-22T20:49:09.453Z,24.03
2019-05-22T20:54:15.379Z,23.80
2019-05-22T20:59:21.895Z,23.80
2019-05-22T21:04:27.701Z,25.57
2019-05-22T21:09:34.595Z,20.47
2019-05-22T21:14:39.797Z,20.83
2019-05-22T21:19:46.393Z,23.97
2019-05-22T21:24:52.283Z,21.53
2019-05-22T21:29:58.116Z,23.20
2019-05-22T21:35:04.563Z,20.97
2019-05-22T21:40:11.183Z,16.90
2019-05-22T21:45:16.645Z,19.27
2019-05-22T21:50:22.796Z,20.30
2019-05-22T21:55:29.633Z,19.13
2019-05-22T22:00:48.047Z,30.93
2019-05-22T22:05:54.716Z,27.73
2019-05-22T22:11:01.462Z,35.17
2019-05-22T22:16:06.824Z,35.03
2019-05-22T22:21:13.493Z,39.70
2019-05-22T22:26:25.863Z,38.40
2019-05-22T22:31:27.713Z,44.23
2019-05-22T22:36:33.399Z,42.63
2019-05-22T22:41:40.178Z,41.43
2019-05-22T22:46:50.534Z,36.60
2019-05-22T22:51:55.915Z,49.03
2019-05-22T22:57:01.510Z,35.87
2019-05-22T23:02:09.439Z,44.70
2019-05-22T23:07:16.522Z,36.03
2019-05-22T23:12:22.709Z,41.90
2019-05-22T23:17:30.440Z,37.90
2019-05-22T23:22:35.032Z,44.80
2019-05-22T23:27:39.988Z,46.13
2019-05-22T23:32:45.915Z,44.70
2019-05-22T23:37:50.824Z,45.77
2019-05-22T23:42:57.458Z,38.87
2019-05-22T23:48:12.166Z,41.40
2019-05-22T23:53:19.007Z,36.87
2019-05-22T23:58:26.729Z,33.67
